Time;durP1;ratioP1;P1;durP2;ratioP2;P2;SDS_P1;SDS_P2;PMS_P1;PMS_P2;Temp;Humidity;BMP_temperature;BMP_pressure;BME280_temperature;BME280_humidity;BME280_pressure;Samples;Min_cycle;Max_cycle;Signal;HPM_P1;HPM_P2
2023/09/24 00:00:33;;;;;;;2.17;1.25;;;;;;;24.13;54.71;100141.16;5113666;28;20077;-68
2023/09/24 00:03:02;;;;;;;3.33;1.63;;;;;;;24.15;54.82;100143.69;5113477;28;20051;-68
2023/09/24 00:05:34;;;;;;;2.40;1.40;;;;;;;24.14;55.05;100147.47;5113780;28;20050;-68
2023/09/24 00:08:06;;;;;;;2.03;1.33;;;;;;;24.14;54.96;100142.00;5113589;28;20403;-68
2023/09/24 00:10:39;;;;;;;1.83;1.13;;;;;;;24.13;54.75;100141.16;5113479;28;20138;-68
2023/09/24 00:13:07;;;;;;;2.33;1.50;;;;;;;24.13;54.65;100137.59;5113319;28;20055;-68
2023/09/24 00:15:38;;;;;;;1.80;1.30;;;;;;;24.11;54.34;100126.00;5113504;28;20048;-68
2023/09/24 00:18:07;;;;;;;1.92;1.23;;;;;;;24.09;54.39;100128.06;5113212;28;20488;-68
2023/09/24 00:20:41;;;;;;;3.00;1.40;;;;;;;24.07;54.47;100124.69;5113393;28;20047;-68
2023/09/24 00:23:10;;;;;;;2.78;1.33;;;;;;;24.02;54.51;100114.31;5094929;28;20047;-69
2023/09/24 00:25:40;;;;;;;3.00;1.50;;;;;;;24.04;54.41;100120.47;5113151;28;20043;-68
2023/09/24 00:28:12;;;;;;;2.50;1.50;;;;;;;24.05;54.49;100134.91;5113103;28;20086;-69
2023/09/24 00:30:42;;;;;;;4.38;1.70;;;;;;;24.05;54.50;100143.09;5112989;28;20043;-67
2023/09/24 00:33:11;;;;;;;2.97;1.52;;;;;;;24.05;54.70;100143.94;5113283;28;20101;-68
2023/09/24 00:35:40;;;;;;;2.53;1.67;;;;;;;24.05;54.75;100154.00;5113149;28;20077;-68
2023/09/24 00:38:08;;;;;;;2.33;1.20;;;;;;;24.05;54.71;100165.75;5112863;28;20047;-68
2023/09/24 00:40:37;;;;;;;2.13;1.40;;;;;;;24.05;54.80;100164.91;5112879;28;20104;-68
2023/09/24 00:43:27;;;;;;;1.65;1.23;;;;;;;24.03;54.78;100166.94;5113075;28;20051;-68
2023/09/24 00:45:57;;;;;;;1.45;1.15;;;;;;;24.05;54.98;100170.34;5112804;28;20043;-68
2023/09/24 00:48:30;;;;;;;2.58;1.30;;;;;;;24.03;55.00;100175.09;5112647;28;20496;-68
2023/09/24 00:51:09;;;;;;;3.33;1.70;;;;;;;24.03;54.82;100172.38;5112503;28;20044;-68
2023/09/24 00:53:39;;;;;;;1.70;1.27;;;;;;;24.03;54.83;100166.94;5112683;28;20127;-68
2023/09/24 00:56:08;;;;;;;2.22;1.30;;;;;;;24.02;54.83;100170.69;5112148;28;20059;-68
2023/09/24 00:58:40;;;;;;;2.30;1.35;;;;;;;24.01;54.87;100164.38;5112716;28;20043;-68
2023/09/24 01:01:08;;;;;;;2.55;1.50;;;;;;;24.01;54.98;100172.56;5112529;28;20093;-68
2023/09/24 01:03:40;;;;;;;2.60;1.38;;;;;;;24.00;54.88;100173.59;5112295;28;20048;-68
2023/09/24 01:06:12;;;;;;;3.83;1.50;;;;;;;24.01;54.85;100174.44;5112667;28;20043;-68
2023/09/24 01:08:42;;;;;;;2.85;1.65;;;;;;;24.02;55.11;100176.13;5112681;28;20058;-67
2023/09/24 01:11:11;;;;;;;2.58;1.55;;;;;;;24.00;54.96;100154.53;5112368;28;20052;-67
2023/09/24 01:13:42;;;;;;;2.50;1.40;;;;;;;23.98;54.71;100156.59;5112353;28;20047;-68
2023/09/24 01:16:11;;;;;;;2.35;1.40;;;;;;;23.99;55.05;100152.84;5112169;28;20040;-68
2023/09/24 01:18:42;;;;;;;1.48;1.20;;;;;;;23.97;55.24;100155.75;5112258;28;20051;-68
2023/09/24 01:21:12;;;;;;;2.47;1.50;;;;;;;23.95;55.12;100155.09;5112468;28;20085;-68
2023/09/24 01:23:45;;;;;;;2.83;1.50;;;;;;;23.97;55.14;100168.50;5112348;28;20047;-68
2023/09/24 01:26:17;;;;;;;2.53;1.33;;;;;;;23.97;55.12;100169.34;5112174;28;20500;-68
2023/09/24 01:28:49;;;;;;;2.53;1.48;;;;;;;23.96;55.24;100167.66;5112066;28;20135;-68
2023/09/24 01:31:18;;;;;;;2.25;1.33;;;;;;;23.95;55.13;100163.25;5111966;28;20055;-67
2023/09/24 01:33:50;;;;;;;2.58;1.65;;;;;;;23.96;54.97;100167.66;5112141;28;20164;-68
2023/09/24 01:36:21;;;;;;;2.03;1.52;;;;;;;23.95;55.05;100176.88;5112242;28;20047;-68
2023/09/24 01:38:50;;;;;;;2.38;1.50;;;;;;;23.94;55.02;100177.91;5112024;28;20050;-67
2023/09/24 01:41:19;;;;;;;2.17;1.27;;;;;;;23.94;55.10;100175.19;5111916;28;20043;-68
2023/09/24 01:43:48;;;;;;;1.85;1.38;;;;;;;23.94;55.06;100175.19;5112159;28;20054;-68
2023/09/24 01:46:21;;;;;;;3.50;1.50;;;;;;;23.93;55.00;100165.31;5116065;28;20050;-68
2023/09/24 01:48:54;;;;;;;2.05;1.40;;;;;;;23.93;55.10;100170.75;5097945;28;20044;-69
2023/09/24 01:51:23;;;;;;;2.67;1.50;;;;;;;23.92;55.25;100170.91;5116220;28;20048;-68
2023/09/24 01:53:53;;;;;;;2.58;1.20;;;;;;;23.92;55.13;100171.75;5115910;28;20050;-69
2023/09/24 01:56:23;;;;;;;3.08;1.40;;;;;;;23.92;55.18;100173.63;5116051;28;20500;-69
2023/09/24 01:58:52;;;;;;;2.10;1.40;;;;;;;23.92;55.29;100185.38;5116395;28;20044;-69
2023/09/24 02:01:24;;;;;;;2.67;1.58;;;;;;;23.92;55.13;100185.38;5116046;28;20065;-69
2023/09/24 02:03:54;;;;;;;2.90;1.53;;;;;;;23.90;55.06;100173.81;5115961;28;20054;-69
2023/09/24 02:06:22;;;;;;;2.85;1.52;;;;;;;23.91;55.17;100170.06;5115762;28;20472;-69
2023/09/24 02:08:55;;;;;;;2.35;1.40;;;;;;;23.90;55.04;100152.03;5116033;28;20470;-69
2023/09/24 02:11:23;;;;;;;2.22;1.52;;;;;;;23.90;54.93;100145.75;5115866;28;20051;-69
2023/09/24 02:13:51;;;;;;;2.85;1.63;;;;;;;23.89;54.82;100161.25;5115362;28;20582;-69
2023/09/24 02:16:19;;;;;;;3.28;1.60;;;;;;;23.89;55.02;100177.59;5115536;28;20428;-69
2023/09/24 02:18:49;;;;;;;2.58;1.50;;;;;;;23.88;55.10;100178.63;5097488;28;20044;-69
2023/09/24 02:21:18;;;;;;;3.38;1.95;;;;;;;23.87;55.07;100170.63;5115737;28;20153;-69
2023/09/24 02:23:46;;;;;;;3.78;1.58;;;;;;;23.88;54.99;100172.31;5097544;28;20050;-69
2023/09/24 02:26:16;;;;;;;4.00;1.80;;;;;;;23.87;55.11;100162.47;5115445;28;20119;-69
2023/09/24 02:28:44;;;;;;;2.38;1.70;;;;;;;23.86;54.70;100161.63;5115664;28;20047;-69
2023/09/24 02:31:16;;;;;;;2.78;1.73;;;;;;;23.86;54.77;100160.75;5097513;28;20097;-70
2023/09/24 02:33:44;;;;;;;1.67;1.50;;;;;;;23.85;55.00;100159.91;5115374;28;20145;-69
2023/09/24 02:36:13;;;;;;;3.30;1.67;;;;;;;23.85;54.99;100150.91;5115520;28;20116;-69
2023/09/24 02:38:41;;;;;;;1.75;1.35;;;;;;;23.83;54.82;100145.59;5115482;28;20043;-69
2023/09/24 02:41:11;;;;;;;2.70;1.70;;;;;;;23.84;55.08;100158.22;5115221;28;20518;-69
2023/09/24 02:43:40;;;;;;;2.30;1.50;;;;;;;23.83;55.12;100152.94;5115194;28;20048;-69
2023/09/24 02:46:09;;;;;;;2.33;1.65;;;;;;;23.84;55.10;100157.38;5114584;28;20101;-69
2023/09/24 02:48:39;;;;;;;2.50;1.63;;;;;;;23.83;55.24;100148.34;5115006;28;20503;-69
2023/09/24 02:51:09;;;;;;;2.78;1.42;;;;;;;23.83;54.99;100155.66;5114970;28;20090;-69
2023/09/24 02:53:38;;;;;;;2.15;1.52;;;;;;;23.81;54.93;100164.00;5114941;28;20052;-69
2023/09/24 02:56:07;;;;;;;2.33;1.50;;;;;;;23.82;54.76;100164.84;5113694;28;20055;-70
2023/09/24 02:58:36;;;;;;;2.20;1.50;;;;;;;23.81;55.31;100163.16;5114807;28;20497;-69
2023/09/24 03:01:15;;;;;;;2.40;1.50;;;;;;;23.80;55.25;100145.97;5114682;28;20047;-70
2023/09/24 03:03:44;;;;;;;2.90;1.52;;;;;;;23.80;55.23;100140.53;5114915;28;20412;-69
2023/09/24 03:06:13;;;;;;;2.53;1.67;;;;;;;23.80;54.91;100145.97;5114816;28;20050;-70
2023/09/24 03:08:41;;;;;;;5.05;1.70;;;;;;;23.80;54.93;100148.69;5114783;28;20126;-70
2023/09/24 03:11:16;;;;;;;2.00;1.35;;;;;;;23.79;55.01;100149.72;5114607;28;20404;-69
2023/09/24 03:13:45;;;;;;;2.20;1.50;;;;;;;23.79;55.12;100147.00;5114567;28;20062;-69
2023/09/24 03:16:15;;;;;;;1.85;1.40;;;;;;;23.78;55.13;100130.84;5096789;28;20408;-69
2023/09/24 03:18:47;;;;;;;2.90;1.67;;;;;;;23.78;55.07;100133.59;5114671;28;20138;-69
2023/09/24 03:21:16;;;;;;;;;;;;;;;23.78;55.26;100136.31;5115396;28;20039;-69
2023/09/24 03:23:45;;;;;;;2.92;1.50;;;;;;;23.76;55.23;100131.03;5114287;28;19943;-69
2023/09/24 03:26:16;;;;;;;2.90;1.70;;;;;;;23.75;55.05;100132.06;5113898;28;20134;-69
2023/09/24 03:28:44;;;;;;;2.72;1.45;;;;;;;23.74;55.13;100135.81;5114464;28;20044;-69
2023/09/24 03:31:15;;;;;;;3.08;1.58;;;;;;;23.76;55.24;100144.66;5114419;28;20039;-69
2023/09/24 03:33:44;;;;;;;2.13;1.40;;;;;;;23.75;55.05;100153.84;5114188;28;20382;-69
2023/09/24 03:36:12;;;;;;;1.77;1.30;;;;;;;23.74;55.24;100154.88;5114134;28;20386;-69
2023/09/24 03:38:41;;;;;;;2.53;1.60;;;;;;;23.74;55.32;100154.00;5114378;28;20047;-69
2023/09/24 03:41:12;;;;;;;2.55;1.70;;;;;;;23.75;55.34;100159.31;5114330;28;20122;-69
2023/09/24 03:43:42;;;;;;;2.22;1.60;;;;;;;23.73;55.36;100153.16;5096735;28;20048;-69
2023/09/24 03:46:16;;;;;;;2.30;1.70;;;;;;;23.75;55.13;100158.47;5113847;28;20073;-70
2023/09/24 03:48:46;;;;;;;2.42;1.30;;;;;;;23.74;55.28;100156.72;5113922;28;20075;-69
2023/09/24 03:51:15;;;;;;;2.72;1.90;;;;;;;23.73;55.22;100161.34;5113859;28;20039;-69
2023/09/24 03:53:50;;;;;;;2.20;1.60;;;;;;;23.72;55.35;100165.09;5113406;28;20047;-69
2023/09/24 03:56:19;;;;;;;2.30;1.60;;;;;;;23.72;55.33;100165.09;5113782;28;20047;-69
2023/09/24 03:58:48;;;;;;;2.42;1.60;;;;;;;23.72;55.43;100165.09;5113772;28;20100;-69
2023/09/24 04:01:17;;;;;;;2.13;1.52;;;;;;;23.72;55.27;100175.13;5095674;28;20198;-69
2023/09/24 04:03:48;;;;;;;3.90;1.60;;;;;;;23.71;55.28;100179.72;5113655;28;20058;-69
2023/09/24 04:06:17;;;;;;;2.53;1.70;;;;;;;23.69;55.33;100168.19;5113696;28;20048;-69
2023/09/24 04:08:47;;;;;;;2.63;1.63;;;;;;;23.69;55.35;100170.91;5113353;28;20130;-69
2023/09/24 04:11:16;;;;;;;2.42;1.50;;;;;;;23.70;55.38;100173.44;5113370;28;20477;-69
2023/09/24 04:13:44;;;;;;;2.30;1.50;;;;;;;23.68;55.58;100174.66;5113187;28;20090;-69
2023/09/24 04:16:13;;;;;;;2.00;1.40;;;;;;;23.68;55.44;100170.06;5113290;28;20489;-69
2023/09/24 04:18:44;;;;;;;2.08;1.50;;;;;;;23.68;55.37;100169.22;5113715;28;20138;-69
2023/09/24 04:21:18;;;;;;;2.28;1.58;;;;;;;23.68;55.43;100174.66;5113524;28;20089;-69
2023/09/24 04:23:49;;;;;;;2.13;1.60;;;;;;;23.67;55.38;100173.81;5113210;28;20053;-69
2023/09/24 04:26:24;;;;;;;2.60;1.80;;;;;;;23.68;55.26;100174.66;5113069;28;20178;-69
2023/09/24 04:28:54;;;;;;;2.45;1.50;;;;;;;23.69;55.42;100181.78;5095832;28;20100;-69
2023/09/24 04:31:22;;;;;;;2.45;1.63;;;;;;;23.66;55.28;100172.13;5113273;28;20071;-69
2023/09/24 04:33:54;;;;;;;2.60;1.65;;;;;;;23.66;55.61;100174.00;5112853;28;20520;-69
2023/09/24 04:36:24;;;;;;;2.15;1.58;;;;;;;23.66;55.31;100179.44;5113368;28;20070;-68
2023/09/24 04:38:53;;;;;;;2.13;1.50;;;;;;;23.65;55.43;100186.75;5112813;28;20039;-69
2023/09/24 04:41:22;;;;;;;2.83;1.60;;;;;;;23.66;55.38;100195.78;5112874;28;20079;-68
2023/09/24 04:43:52;;;;;;;1.98;1.50;;;;;;;23.66;55.45;100198.50;5112959;28;20043;-69
2023/09/24 04:46:23;;;;;;;2.22;1.50;;;;;;;23.64;55.48;100200.53;5112726;28;20039;-69
2023/09/24 04:48:51;;;;;;;2.53;1.58;;;;;;;23.64;55.46;100204.13;5112817;28;20047;-69
2023/09/24 04:51:20;;;;;;;2.53;1.52;;;;;;;23.65;55.38;100213.16;5112741;28;20130;-69
2023/09/24 04:53:52;;;;;;;2.60;1.70;;;;;;;23.64;55.58;100212.28;5112557;28;20417;-68
2023/09/24 04:56:20;;;;;;;2.53;1.70;;;;;;;23.64;55.26;100209.56;5112898;28;20122;-69
2023/09/24 04:58:52;;;;;;;2.40;1.60;;;;;;;23.62;55.51;100206.16;5112615;28;20051;-68
2023/09/24 05:01:20;;;;;;;2.20;1.50;;;;;;;23.64;55.46;100211.41;5112677;28;20068;-69
2023/09/24 05:03:50;;;;;;;2.72;1.50;;;;;;;23.63;55.46;100215.16;5112525;28;20047;-68
2023/09/24 05:06:19;;;;;;;2.50;1.50;;;;;;;23.62;55.47;100221.63;5112357;28;20051;-68
2023/09/24 05:08:49;;;;;;;2.13;1.48;;;;;;;23.62;55.36;100208.03;5112442;28;20107;-68
2023/09/24 05:11:18;;;;;;;3.42;1.58;;;;;;;23.62;55.47;100202.59;5094669;28;20048;-68
2023/09/24 05:13:47;;;;;;;2.88;1.70;;;;;;;23.61;55.55;100206.34;5112234;28;20503;-68
2023/09/24 05:16:16;;;;;;;2.55;1.70;;;;;;;23.61;55.53;100206.34;5094165;28;20499;-68
2023/09/24 05:18:48;;;;;;;2.60;1.60;;;;;;;23.60;55.42;100194.59;5111994;28;20047;-68
2023/09/24 05:21:18;;;;;;;2.15;1.35;;;;;;;23.61;55.54;100209.06;5112106;28;20097;-68
2023/09/24 05:23:47;;;;;;;2.00;1.38;;;;;;;23.58;55.52;100206.66;5112344;28;20052;-68
2023/09/24 05:26:20;;;;;;;2.50;1.60;;;;;;;23.60;55.58;100220.97;5112267;28;20055;-68
2023/09/24 05:28:49;;;;;;;2.13;1.48;;;;;;;23.59;55.49;100219.28;5111687;28;20056;-68
2023/09/24 05:31:17;;;;;;;2.13;1.50;;;;;;;23.59;55.63;100219.28;5112000;28;20040;-68
2023/09/24 05:33:49;;;;;;;2.50;1.42;;;;;;;23.57;55.50;100221.31;5112223;28;20044;-68
2023/09/24 05:36:18;;;;;;;1.90;1.50;;;;;;;23.60;55.57;100231.88;5112283;28;20050;-68
2023/09/24 05:38:48;;;;;;;2.30;1.65;;;;;;;23.59;55.78;100230.19;5112163;28;20497;-68
2023/09/24 05:41:17;;;;;;;2.70;1.50;;;;;;;23.58;55.65;100233.91;5112350;28;20044;-68
2023/09/24 05:43:47;;;;;;;2.28;1.70;;;;;;;23.58;55.58;100239.34;5112151;28;20447;-68
2023/09/24 05:46:15;;;;;;;2.55;1.60;;;;;;;23.58;55.61;100233.91;5094525;28;20407;-68
2023/09/24 05:48:44;;;;;;;1.95;1.40;;;;;;;23.57;55.67;100235.78;5112305;28;20074;-68
2023/09/24 05:51:13;;;;;;;3.28;1.88;;;;;;;23.58;55.63;100239.34;5112069;28;20048;-67
2023/09/24 05:53:41;;;;;;;2.15;1.50;;;;;;;23.57;55.67;100232.19;5111901;28;20052;-67
2023/09/24 05:56:10;;;;;;;2.53;1.67;;;;;;;23.56;55.52;100231.34;5111973;28;20468;-67
2023/09/24 05:58:39;;;;;;;2.60;1.40;;;;;;;23.53;55.34;100236.28;5112009;28;20052;-67
2023/09/24 06:01:13;;;;;;;2.10;1.50;;;;;;;23.55;55.49;100245.16;5112004;28;20142;-68
2023/09/24 06:03:42;;;;;;;2.58;1.60;;;;;;;23.55;55.55;100240.56;5094875;28;20044;-67
2023/09/24 06:06:12;;;;;;;2.42;1.50;;;;;;;23.54;55.80;100254.31;5111934;28;20059;-68
2023/09/24 06:08:41;;;;;;;2.25;1.45;;;;;;;23.55;55.62;100256.03;5111949;28;20076;-67
2023/09/24 06:11:09;;;;;;;2.53;1.55;;;;;;;23.54;55.56;100248.88;5111780;28;20047;-67
2023/09/24 06:13:39;;;;;;;3.42;1.50;;;;;;;23.53;55.44;100258.06;5111738;28;20043;-67
2023/09/24 06:16:11;;;;;;;2.83;1.63;;;;;;;23.53;55.58;100263.50;5111822;28;20051;-67
2023/09/24 06:18:40;;;;;;;1.85;1.40;;;;;;;23.52;55.54;100262.66;5111859;28;20276;-67
2023/09/24 06:21:15;;;;;;;2.40;1.70;;;;;;;23.52;55.54;100267.25;5112001;28;20044;-67
2023/09/24 06:23:44;;;;;;;2.40;1.48;;;;;;;23.52;55.55;100275.41;5111650;28;20090;-68
2023/09/24 06:26:19;;;;;;;1.70;1.40;;;;;;;23.52;55.69;100278.16;5111783;28;20051;-68
2023/09/24 06:28:49;;;;;;;2.60;1.52;;;;;;;23.51;55.48;100280.03;5111623;28;20044;-67
2023/09/24 06:31:37;;;;;;;2.33;1.58;;;;;;;23.51;55.70;100281.91;5113998;28;20452;-67
2023/09/24 06:34:06;;;;;;;2.88;1.50;;;;;;;23.51;55.56;100281.91;5115153;28;20058;-67
2023/09/24 06:36:35;;;;;;;2.35;1.63;;;;;;;23.49;55.52;100294.84;5115660;28;20059;-66
2023/09/24 06:39:08;;;;;;;2.05;1.45;;;;;;;23.49;55.54;100292.97;5115506;28;20050;-67
2023/09/24 06:41:37;;;;;;;2.60;1.63;;;;;;;23.48;55.67;100293.13;5115395;28;20050;-67
2023/09/24 06:44:05;;;;;;;1.85;1.30;;;;;;;23.49;55.54;100295.69;5115218;28;20044;-68
2023/09/24 06:46:34;;;;;;;2.10;1.48;;;;;;;23.49;55.63;100294.84;5115130;28;20052;-67
2023/09/24 06:49:04;;;;;;;2.80;1.50;;;;;;;23.47;55.76;100299.63;5115544;28;20112;-66
2023/09/24 06:51:32;;;;;;;2.88;1.60;;;;;;;23.48;55.83;100301.31;5115301;28;20044;-67
2023/09/24 06:54:03;;;;;;;3.38;1.58;;;;;;;23.49;55.88;100306.56;5115031;28;20044;-67
2023/09/24 06:56:32;;;;;;;2.30;1.48;;;;;;;23.49;55.73;100309.28;5115100;28;20047;-67
2023/09/24 06:59:09;;;;;;;2.13;1.40;;;;;;;23.47;55.92;100303.19;5114928;28;20043;-67
2023/09/24 07:01:40;;;;;;;2.22;1.40;;;;;;;23.48;55.77;100315.75;5115196;28;20055;-69
2023/09/24 07:04:10;;;;;;;2.08;1.42;;;;;;;23.48;55.68;100314.91;5114884;28;20079;-67
2023/09/24 07:06:40;;;;;;;1.65;1.17;;;;;;;23.47;55.95;100313.22;5115496;28;20048;-66
2023/09/24 07:09:09;;;;;;;2.08;1.40;;;;;;;23.48;56.01;100321.22;5113358;28;20055;-66
2023/09/24 07:11:39;;;;;;;2.38;1.50;;;;;;;23.48;56.06;100314.91;5114158;28;20052;-66
2023/09/24 07:14:11;;;;;;;2.55;1.70;;;;;;;23.47;56.03;100314.06;5113931;28;20098;-66
2023/09/24 07:16:40;;;;;;;3.25;1.70;;;;;;;23.49;56.28;100319.34;5114081;28;20154;-66
2023/09/24 07:19:10;;;;;;;4.40;1.65;;;;;;;23.49;56.20;100322.06;5113416;28;20115;-66
2023/09/24 07:21:38;;;;;;;3.22;1.45;;;;;;;23.49;56.27;100316.63;5114117;27;20040;-66
2023/09/24 07:24:07;;;;;;;2.20;1.42;;;;;;;23.47;56.56;100318.66;5114360;28;20092;-66
2023/09/24 07:26:36;;;;;;;2.35;1.58;;;;;;;23.49;56.38;100319.34;5096133;28;20051;-67
2023/09/24 07:29:05;;;;;;;3.08;1.80;;;;;;;23.48;56.45;100326.66;5114391;28;20483;-66
2023/09/24 07:31:36;;;;;;;2.50;1.67;;;;;;;23.48;56.38;100329.38;5113925;28;20062;-66
2023/09/24 07:34:10;;;;;;;2.72;1.58;;;;;;;23.47;56.04;100335.84;5113792;28;20051;-66
2023/09/24 07:36:38;;;;;;;2.58;1.70;;;;;;;23.47;56.39;100335.00;5095203;28;20116;-66
2023/09/24 07:39:28;;;;;;;2.40;1.27;;;;;;;23.48;56.45;100333.97;5113802;28;20044;-66
2023/09/24 07:41:56;;;;;;;3.42;1.60;;;;;;;23.48;56.43;100332.09;5112936;28;20460;-66
2023/09/24 07:44:30;;;;;;;2.20;1.52;;;;;;;23.48;56.50;100347.59;5113817;28;20069;-66
2023/09/24 07:46:59;;;;;;;3.67;1.70;;;;;;;23.49;56.56;100346.56;5113252;28;20491;-66
2023/09/24 07:49:29;;;;;;;2.47;1.70;;;;;;;23.49;56.64;100338.38;5113737;28;20135;-66
2023/09/24 07:51:57;;;;;;;2.58;1.45;;;;;;;23.49;56.62;100349.28;5095556;28;20113;-66
2023/09/24 07:54:28;;;;;;;2.75;1.30;;;;;;;23.49;56.58;100352.84;5113616;28;20079;-67
2023/09/24 07:56:57;;;;;;;3.80;1.50;;;;;;;23.48;56.49;100353.88;5094593;28;20144;-67
2023/09/24 07:59:25;;;;;;;3.13;1.65;;;;;;;23.50;56.25;100361.88;5113485;28;20078;-69
2023/09/24 08:01:58;;;;;;;2.30;1.50;;;;;;;23.49;56.58;100361.00;5110741;28;20063;-66
2023/09/24 08:04:29;;;;;;;4.10;1.73;;;;;;;23.50;56.67;100364.59;5113067;28;20138;-67
2023/09/24 08:06:57;;;;;;;2.42;1.58;;;;;;;23.48;56.76;100353.88;5112712;28;20188;-67
2023/09/24 08:09:25;;;;;;;3.53;1.60;;;;;;;23.49;56.79;100362.88;5094446;28;20058;-68
2023/09/24 08:11:55;;;;;;;3.90;1.63;;;;;;;23.49;56.72;100357.44;5112725;28;20422;-68
2023/09/24 08:14:27;;;;;;;2.60;1.30;;;;;;;23.49;56.75;100371.06;5112407;28;20092;-68
2023/09/24 08:16:55;;;;;;;3.78;1.40;;;;;;;23.48;56.76;100370.22;5112517;28;20349;-68
2023/09/24 08:19:26;;;;;;;2.60;1.50;;;;;;;23.49;56.83;100373.78;5094771;28;20066;-67
2023/09/24 08:21:56;;;;;;;2.20;1.30;;;;;;;23.48;56.76;100380.25;5112389;28;20046;-66
2023/09/24 08:24:27;;;;;;;2.58;1.40;;;;;;;23.49;56.94;100382.78;5112420;28;20469;-66
2023/09/24 08:26:58;;;;;;;2.15;1.30;;;;;;;23.48;56.76;100380.25;5111981;28;20435;-67
2023/09/24 08:29:31;;;;;;;5.70;1.60;;;;;;;23.48;56.69;100375.66;5111869;28;20043;-67
2023/09/24 08:32:00;;;;;;;2.20;1.33;;;;;;;23.49;56.85;100379.22;5112363;28;20158;-68
2023/09/24 08:34:31;;;;;;;2.40;1.42;;;;;;;23.48;57.07;100386.53;5112115;28;20481;-67
2023/09/24 08:37:03;;;;;;;2.00;1.20;;;;;;;23.49;56.86;100381.94;5112129;28;20116;-67
2023/09/24 08:39:31;;;;;;;3.95;1.70;;;;;;;23.49;56.76;100382.78;5112118;28;20054;-67
2023/09/24 08:42:07;;;;;;;2.47;1.42;;;;;;;23.48;56.94;100388.41;5111502;28;20085;-67
2023/09/24 08:44:40;;;;;;;2.10;1.42;;;;;;;23.49;56.83;100390.13;5112194;28;20060;-67
2023/09/24 08:47:09;;;;;;;2.70;1.50;;;;;;;23.50;57.00;100380.91;5093533;28;20066;-67
2023/09/24 08:49:38;;;;;;;2.47;1.40;;;;;;;23.49;57.11;100387.38;5112024;28;20063;-66
2023/09/24 08:52:10;;;;;;;2.58;1.50;;;;;;;23.49;56.98;100388.25;5111866;28;20093;-67
2023/09/24 08:54:39;;;;;;;2.63;1.57;;;;;;;23.50;57.33;100380.91;5111154;28;20131;-67
2023/09/24 08:57:07;;;;;;;3.70;1.48;;;;;;;23.50;57.17;100387.22;5111769;28;20055;-67
2023/09/24 08:59:40;;;;;;;2.50;1.40;;;;;;;23.52;57.31;100389.75;5111988;28;20043;-67
2023/09/24 09:02:11;;;;;;;2.53;1.33;;;;;;;23.50;57.09;100384.50;5111863;28;20044;-67
2023/09/24 09:04:48;;;;;;;2.53;1.40;;;;;;;23.51;57.23;100386.19;5093976;28;20052;-66
2023/09/24 09:07:18;;;;;;;3.05;1.40;;;;;;;23.51;57.28;100388.06;5111423;28;20412;-67
2023/09/24 09:09:54;;;;;;;2.42;1.35;;;;;;;23.51;57.36;100397.06;5111909;28;20036;-67
2023/09/24 09:12:25;;;;;;;2.83;1.50;;;;;;;23.52;57.26;100395.19;5111461;28;20051;-67
2023/09/24 09:14:55;;;;;;;2.28;1.10;;;;;;;23.52;57.27;100390.59;5112256;28;20048;-65
2023/09/24 09:17:24;;;;;;;2.72;1.50;;;;;;;23.52;57.34;100392.47;5111791;28;20061;-68
2023/09/24 09:19:56;;;;;;;3.10;1.40;;;;;;;23.53;57.53;100394.19;5112103;28;20385;-70
2023/09/24 09:22:28;;;;;;;2.88;1.42;;;;;;;23.53;57.40;100400.47;5112807;28;20048;-67
2023/09/24 09:25:04;;;;;;;3.47;1.48;;;;;;;23.52;57.38;100397.94;5112276;28;20456;-69
2023/09/24 09:27:34;;;;;;;2.63;1.50;;;;;;;23.52;57.46;100395.19;5112261;28;20047;-69
2023/09/24 09:30:15;;;;;;;3.08;1.55;;;;;;;23.52;57.34;100400.66;5112149;28;20052;-70
2023/09/24 09:32:44;;;;;;;3.10;1.60;;;;;;;23.51;57.45;100405.25;5112334;28;20151;-69
2023/09/24 09:35:18;;;;;;;3.65;1.33;;;;;;;23.52;57.38;100397.94;5112159;28;20109;-71
2023/09/24 09:37:53;;;;;;;3.75;1.60;;;;;;;23.49;57.42;100404.56;5112179;28;20461;-67
2023/09/24 09:40:22;;;;;;;3.13;1.30;;;;;;;23.50;57.42;100409.00;5112066;28;20097;-70
2023/09/24 09:42:51;;;;;;;2.88;1.48;;;;;;;23.49;57.34;100403.72;5112140;28;20043;-69
2023/09/24 09:45:21;;;;;;;3.88;1.40;;;;;;;23.50;57.49;100408.16;5111814;28;20156;-63
2023/09/24 09:48:00;;;;;;;3.30;1.50;;;;;;;23.52;57.47;100414.25;5112022;28;20043;-68
2023/09/24 09:50:33;;;;;;;3.97;1.52;;;;;;;23.52;57.57;100409.66;5112062;28;20139;-64
2023/09/24 09:53:08;;;;;;;3.50;1.40;;;;;;;23.53;57.63;100424.13;5111544;28;20078;-65
2023/09/24 09:55:39;;;;;;;3.65;1.50;;;;;;;23.53;57.46;100424.97;5111687;28;20053;-66
2023/09/24 09:58:09;;;;;;;4.10;1.63;;;;;;;23.53;57.43;100421.41;5111065;28;20048;-65
2023/09/24 10:00:53;;;;;;;4.03;1.50;;;;;;;23.53;57.54;100419.53;5111421;28;20043;-65
2023/09/24 10:03:24;;;;;;;3.55;1.60;;;;;;;23.54;57.39;100434.00;5111733;28;20060;-65
2023/09/24 10:05:59;;;;;;;7.53;1.65;;;;;;;23.54;57.54;100434.00;5112072;28;20047;-65
2023/09/24 10:08:40;;;;;;;3.90;1.73;;;;;;;23.55;57.58;100435.72;5115099;28;20456;-65
2023/09/24 10:11:10;;;;;;;4.63;1.70;;;;;;;23.56;57.61;100426.53;5115317;28;20048;-65
2023/09/24 10:13:51;;;;;;;6.63;1.73;;;;;;;23.57;57.70;100439.13;5114979;28;20056;-65
2023/09/24 10:16:41;;;;;;;6.07;1.77;;;;;;;23.56;57.59;100438.25;5115449;28;20563;-65
2023/09/24 10:19:12;;;;;;;9.00;2.20;;;;;;;23.57;57.64;100441.84;5115059;28;20087;-68
2023/09/24 10:21:45;;;;;;;40.88;3.60;;;;;;;23.57;57.88;100439.13;5115303;28;20054;-65
2023/09/24 10:24:48;;;;;;;10.05;1.85;;;;;;;23.59;57.84;100445.25;5114350;28;20051;-67
2023/09/24 10:27:28;;;;;;;9.45;2.00;;;;;;;23.59;57.73;100453.44;5115106;28;20055;-65
2023/09/24 10:30:06;;;;;;;7.05;2.33;;;;;;;23.59;57.77;100450.72;5096955;28;20676;-67
2023/09/24 10:32:52;;;;;;;13.43;2.75;;;;;;;23.61;57.78;100457.66;5115396;28;20079;-64
2023/09/24 10:35:21;;;;;;;10.85;2.20;;;;;;;23.62;57.76;100453.06;5115248;28;20051;-64
2023/09/24 10:37:58;;;;;;;7.18;2.20;;;;;;;23.63;57.65;100463.78;5115035;28;20093;-64
2023/09/24 10:40:29;;;;;;;8.10;1.88;;;;;;;23.64;57.83;100467.38;5114938;28;20054;-64
2023/09/24 10:43:21;;;;;;;5.63;1.98;;;;;;;23.62;57.78;100459.38;5115334;28;20048;-64
2023/09/24 10:45:49;;;;;;;5.85;1.83;;;;;;;23.64;57.69;100472.81;5095504;28;20461;-64
2023/09/24 10:48:19;;;;;;;6.43;1.70;;;;;;;23.63;57.66;100468.38;5096856;28;20047;-64
2023/09/24 10:51:03;;;;;;;5.95;1.90;;;;;;;23.64;57.71;100456.47;5114993;28;20431;-64
2023/09/24 10:53:35;;;;;;;4.63;1.65;;;;;;;23.64;57.62;100462.81;5097416;28;20520;-64
2023/09/24 10:56:10;;;;;;;9.02;1.42;;;;;;;23.64;57.60;100456.47;5115280;28;20044;-64
2023/09/24 10:58:49;;;;;;;7.15;1.73;;;;;;;23.63;57.80;100454.78;5114646;28;20051;-64
2023/09/24 11:01:29;;;;;;;3.58;1.75;;;;;;;23.63;57.67;100455.63;5115007;28;20043;-64
2023/09/24 11:03:57;;;;;;;8.10;1.50;;;;;;;23.63;57.77;100462.94;5114870;28;20140;-66
2023/09/24 11:06:30;;;;;;;4.85;1.65;;;;;;;23.64;57.63;100456.47;5114484;28;20373;-64
2023/09/24 11:09:17;;;;;;;5.05;1.48;;;;;;;23.63;57.71;100449.31;5114394;28;20043;-63
2023/09/24 11:11:49;;;;;;;5.47;1.50;;;;;;;23.63;57.50;100443.88;5114313;28;20051;-63
2023/09/24 11:14:22;;;;;;;3.65;1.33;;;;;;;23.63;57.45;100444.72;5113900;28;20525;-64
2023/09/24 11:16:51;;;;;;;;;;;;;;;23.63;57.44;100454.78;5113765;28;20566;-65
2023/09/24 11:19:44;;;;;;;3.28;1.33;;;;;;;23.64;57.51;100456.47;5113953;28;19919;-65
2023/09/24 11:22:17;;;;;;;3.88;1.55;;;;;;;23.62;57.66;100459.38;5113263;28;20043;-64
2023/09/24 11:25:06;;;;;;;4.55;1.40;;;;;;;23.63;57.57;100465.66;5114213;28;20093;-65
2023/09/24 11:27:47;;;;;;;6.28;1.50;;;;;;;23.63;57.43;100468.38;5114302;28;20442;-65
2023/09/24 11:30:23;;;;;;;4.40;1.60;;;;;;;23.63;57.58;100471.97;5114279;28;20135;-64
2023/09/24 11:32:53;;;;;;;8.05;1.50;;;;;;;23.64;57.32;100461.91;5113883;28;20513;-65
2023/09/24 11:35:25;;;;;;;3.20;1.33;;;;;;;23.65;57.45;100463.66;5114041;28;20060;-64
2023/09/24 11:37:56;;;;;;;3.67;1.38;;;;;;;23.64;57.21;100456.47;5113685;28;20399;-65
2023/09/24 11:40:28;;;;;;;2.53;1.30;;;;;;;23.62;57.41;100458.53;5113821;28;20043;-64
2023/09/24 11:42:59;;;;;;;2.97;1.10;;;;;;;23.64;57.60;100462.81;5113902;28;20044;-64
2023/09/24 11:45:49;;;;;;;2.38;1.30;;;;;;;23.62;57.52;100453.06;5113557;28;20128;-64